sensor_id;sensor_type;location;lat;lon;timestamp;P1;durP1;ratioP1;P2;durP2;ratioP2
68821;SDS011;55834;50.870;4.606;2023-05-20T00:01:01;5.32;;;3.28;;
68821;SDS011;55834;50.870;4.606;2023-05-20T00:03:27;6.63;;;3.53;;
68821;SDS011;55834;50.870;4.606;2023-05-20T00:05:53;5.15;;;3.85;;
68821;SDS011;55834;50.870;4.606;2023-05-20T00:08:19;6.28;;;3.30;;
68821;SDS011;55834;50.870;4.606;2023-05-20T00:10:44;5.72;;;3.13;;
68821;SDS011;55834;50.870;4.606;2023-05-20T00:13:10;5.68;;;3.80;;
68821;SDS011;55834;50.870;4.606;2023-05-20T00:15:35;5.35;;;3.58;;
68821;SDS011;55834;50.870;4.606;2023-05-20T00:18:01;4.40;;;3.13;;
68821;SDS011;55834;50.870;4.606;2023-05-20T00:20:27;7.30;;;3.88;;
68821;SDS011;55834;50.870;4.606;2023-05-20T00:22:52;7.57;;;3.65;;
68821;SDS011;55834;50.870;4.606;2023-05-20T00:25:18;7.67;;;4.03;;
68821;SDS011;55834;50.870;4.606;2023-05-20T00:27:43;4.55;;;3.50;;
68821;SDS011;55834;50.870;4.606;2023-05-20T00:30:09;5.20;;;3.10;;
68821;SDS011;55834;50.870;4.606;2023-05-20T00:32:34;6.95;;;3.60;;
68821;SDS011;55834;50.870;4.606;2023-05-20T00:35:00;5.78;;;3.85;;
68821;SDS011;55834;50.870;4.606;2023-05-20T00:37:26;8.82;;;4.18;;
68821;SDS011;55834;50.870;4.606;2023-05-20T00:39:52;5.35;;;3.67;;
68821;SDS011;55834;50.870;4.606;2023-05-20T00:44:46;9.60;;;4.15;;
68821;SDS011;55834;50.870;4.606;2023-05-20T00:47:13;9.02;;;3.75;;
68821;SDS011;55834;50.870;4.606;2023-05-20T00:49:40;4.65;;;3.25;;
68821;SDS011;55834;50.870;4.606;2023-05-20T00:52:06;6.22;;;3.55;;
68821;SDS011;55834;50.870;4.606;2023-05-20T00:54:32;6.28;;;3.22;;
68821;SDS011;55834;50.870;4.606;2023-05-20T00:56:58;5.47;;;3.33;;
68821;SDS011;55834;50.870;4.606;2023-05-20T00:59:23;5.43;;;3.03;;
68821;SDS011;55834;50.870;4.606;2023-05-20T01:01:50;3.88;;;2.90;;
68821;SDS011;55834;50.870;4.606;2023-05-20T01:04:16;4.05;;;3.38;;
68821;SDS011;55834;50.870;4.606;2023-05-20T01:06:42;4.00;;;3.63;;
68821;SDS011;55834;50.870;4.606;2023-05-20T01:09:08;6.72;;;3.17;;
68821;SDS011;55834;50.870;4.606;2023-05-20T01:11:34;3.58;;;2.88;;
68821;SDS011;55834;50.870;4.606;2023-05-20T01:14:04;5.20;;;3.30;;
68821;SDS011;55834;50.870;4.606;2023-05-20T01:16:31;3.40;;;3.13;;
68821;SDS011;55834;50.870;4.606;2023-05-20T01:18:59;6.45;;;3.15;;
68821;SDS011;55834;50.870;4.606;2023-05-20T01:21:26;3.20;;;2.90;;
68821;SDS011;55834;50.870;4.606;2023-05-20T01:23:54;4.65;;;2.90;;
68821;SDS011;55834;50.870;4.606;2023-05-20T01:26:20;3.22;;;2.78;;
68821;SDS011;55834;50.870;4.606;2023-05-20T01:28:46;3.28;;;2.92;;
68821;SDS011;55834;50.870;4.606;2023-05-20T01:31:25;3.33;;;2.58;;
68821;SDS011;55834;50.870;4.606;2023-05-20T01:33:54;3.88;;;3.10;;
68821;SDS011;55834;50.870;4.606;2023-05-20T01:36:22;3.15;;;2.75;;
68821;SDS011;55834;50.870;4.606;2023-05-20T01:38:48;4.80;;;3.22;;
68821;SDS011;55834;50.870;4.606;2023-05-20T01:41:14;4.03;;;2.58;;
68821;SDS011;55834;50.870;4.606;2023-05-20T01:43:41;6.32;;;3.10;;
68821;SDS011;55834;50.870;4.606;2023-05-20T01:46:08;3.38;;;3.08;;
68821;SDS011;55834;50.870;4.606;2023-05-20T01:48:33;6.00;;;2.80;;
68821;SDS011;55834;50.870;4.606;2023-05-20T01:50:59;5.13;;;2.65;;
68821;SDS011;55834;50.870;4.606;2023-05-20T01:53:24;5.13;;;3.38;;
68821;SDS011;55834;50.870;4.606;2023-05-20T01:55:50;4.85;;;2.70;;
68821;SDS011;55834;50.870;4.606;2023-05-20T01:58:15;5.88;;;2.55;;
68821;SDS011;55834;50.870;4.606;2023-05-20T02:00:40;4.80;;;3.03;;
68821;SDS011;55834;50.870;4.606;2023-05-20T02:03:06;4.90;;;3.00;;
68821;SDS011;55834;50.870;4.606;2023-05-20T02:05:31;3.55;;;2.97;;
68821;SDS011;55834;50.870;4.606;2023-05-20T02:07:57;3.65;;;2.90;;
68821;SDS011;55834;50.870;4.606;2023-05-20T02:10:22;4.68;;;2.58;;
68821;SDS011;55834;50.870;4.606;2023-05-20T02:12:48;5.57;;;2.75;;
68821;SDS011;55834;50.870;4.606;2023-05-20T02:15:13;4.82;;;2.78;;
68821;SDS011;55834;50.870;4.606;2023-05-20T02:17:39;3.00;;;2.13;;
68821;SDS011;55834;50.870;4.606;2023-05-20T02:20:05;3.70;;;2.70;;
68821;SDS011;55834;50.870;4.606;2023-05-20T02:22:31;3.50;;;3.00;;
68821;SDS011;55834;50.870;4.606;2023-05-20T02:24:57;4.53;;;2.72;;
68821;SDS011;55834;50.870;4.606;2023-05-20T02:27:22;3.33;;;2.50;;
68821;SDS011;55834;50.870;4.606;2023-05-20T02:29:48;4.30;;;2.70;;
68821;SDS011;55834;50.870;4.606;2023-05-20T02:32:13;4.35;;;2.72;;
68821;SDS011;55834;50.870;4.606;2023-05-20T02:34:38;5.80;;;2.75;;
68821;SDS011;55834;50.870;4.606;2023-05-20T02:37:04;4.90;;;3.20;;
68821;SDS011;55834;50.870;4.606;2023-05-20T02:39:29;3.28;;;2.50;;
68821;SDS011;55834;50.870;4.606;2023-05-20T02:41:55;3.08;;;2.80;;
68821;SDS011;55834;50.870;4.606;2023-05-20T02:44:21;3.05;;;2.63;;
68821;SDS011;55834;50.870;4.606;2023-05-20T02:46:46;4.43;;;3.13;;
68821;SDS011;55834;50.870;4.606;2023-05-20T02:49:11;7.57;;;2.83;;
68821;SDS011;55834;50.870;4.606;2023-05-20T02:51:38;4.82;;;2.60;;
68821;SDS011;55834;50.870;4.606;2023-05-20T02:54:04;4.30;;;3.13;;
68821;SDS011;55834;50.870;4.606;2023-05-20T02:56:30;13.80;;;2.78;;
68821;SDS011;55834;50.870;4.606;2023-05-20T02:58:56;3.78;;;2.67;;
68821;SDS011;55834;50.870;4.606;2023-05-20T03:01:22;5.78;;;2.55;;
68821;SDS011;55834;50.870;4.606;2023-05-20T03:03:47;4.85;;;2.38;;
68821;SDS011;55834;50.870;4.606;2023-05-20T03:06:13;6.50;;;3.28;;
68821;SDS011;55834;50.870;4.606;2023-05-20T03:08:38;3.28;;;2.55;;
68821;SDS011;55834;50.870;4.606;2023-05-20T03:11:06;4.78;;;2.70;;
68821;SDS011;55834;50.870;4.606;2023-05-20T03:13:32;6.25;;;2.90;;
68821;SDS011;55834;50.870;4.606;2023-05-20T03:15:58;4.57;;;2.92;;
68821;SDS011;55834;50.870;4.606;2023-05-20T03:18:25;8.55;;;2.60;;
68821;SDS011;55834;50.870;4.606;2023-05-20T03:20:50;4.05;;;2.63;;
68821;SDS011;55834;50.870;4.606;2023-05-20T03:23:16;4.10;;;3.70;;
68821;SDS011;55834;50.870;4.606;2023-05-20T03:25:41;4.25;;;2.45;;
68821;SDS011;55834;50.870;4.606;2023-05-20T03:28:07;3.63;;;3.17;;
68821;SDS011;55834;50.870;4.606;2023-05-20T03:30:32;4.80;;;2.83;;
68821;SDS011;55834;50.870;4.606;2023-05-20T03:32:58;4.38;;;3.28;;
68821;SDS011;55834;50.870;4.606;2023-05-20T03:35:24;5.60;;;3.30;;
68821;SDS011;55834;50.870;4.606;2023-05-20T03:37:50;4.93;;;3.15;;
68821;SDS011;55834;50.870;4.606;2023-05-20T03:40:17;7.45;;;3.30;;
68821;SDS011;55834;50.870;4.606;2023-05-20T03:42:43;4.95;;;2.90;;
68821;SDS011;55834;50.870;4.606;2023-05-20T03:45:08;5.60;;;2.95;;
68821;SDS011;55834;50.870;4.606;2023-05-20T03:47:35;6.88;;;2.92;;
68821;SDS011;55834;50.870;4.606;2023-05-20T03:50:00;4.35;;;2.85;;
68821;SDS011;55834;50.870;4.606;2023-05-20T03:52:25;3.50;;;3.20;;
68821;SDS011;55834;50.870;4.606;2023-05-20T03:54:52;4.00;;;2.90;;
68821;SDS011;55834;50.870;4.606;2023-05-20T03:57:17;6.82;;;3.08;;
68821;SDS011;55834;50.870;4.606;2023-05-20T03:59:43;4.45;;;2.72;;
68821;SDS011;55834;50.870;4.606;2023-05-20T04:02:09;5.38;;;2.53;;
68821;SDS011;55834;50.870;4.606;2023-05-20T04:04:35;6.40;;;2.78;;
68821;SDS011;55834;50.870;4.606;2023-05-20T04:07:00;6.03;;;2.90;;
68821;SDS011;55834;50.870;4.606;2023-05-20T04:09:27;5.57;;;3.50;;
68821;SDS011;55834;50.870;4.606;2023-05-20T04:11:52;6.07;;;3.17;;
68821;SDS011;55834;50.870;4.606;2023-05-20T04:14:18;5.18;;;3.55;;
68821;SDS011;55834;50.870;4.606;2023-05-20T04:16:43;5.55;;;3.60;;
68821;SDS011;55834;50.870;4.606;2023-05-20T04:19:10;6.80;;;3.25;;
68821;SDS011;55834;50.870;4.606;2023-05-20T04:21:35;4.30;;;3.17;;
68821;SDS011;55834;50.870;4.606;2023-05-20T04:24:01;5.43;;;3.25;;
68821;SDS011;55834;50.870;4.606;2023-05-20T04:26:26;6.22;;;2.65;;
68821;SDS011;55834;50.870;4.606;2023-05-20T04:28:53;6.07;;;4.10;;
68821;SDS011;55834;50.870;4.606;2023-05-20T04:31:19;5.63;;;2.90;;
68821;SDS011;55834;50.870;4.606;2023-05-20T04:33:50;5.88;;;3.33;;
68821;SDS011;55834;50.870;4.606;2023-05-20T04:36:16;4.00;;;3.55;;
68821;SDS011;55834;50.870;4.606;2023-05-20T04:38:42;8.57;;;3.10;;
68821;SDS011;55834;50.870;4.606;2023-05-20T04:41:08;3.72;;;2.92;;
68821;SDS011;55834;50.870;4.606;2023-05-20T04:43:34;5.28;;;3.33;;
68821;SDS011;55834;50.870;4.606;2023-05-20T04:46:02;5.68;;;3.75;;
68821;SDS011;55834;50.870;4.606;2023-05-20T04:48:30;6.57;;;3.20;;
68821;SDS011;55834;50.870;4.606;2023-05-20T04:50:56;3.65;;;2.72;;
68821;SDS011;55834;50.870;4.606;2023-05-20T04:53:21;4.70;;;3.35;;
68821;SDS011;55834;50.870;4.606;2023-05-20T04:55:47;4.88;;;4.15;;
68821;SDS011;55834;50.870;4.606;2023-05-20T04:58:22;4.60;;;3.20;;
68821;SDS011;55834;50.870;4.606;2023-05-20T05:00:51;6.07;;;3.38;;
68821;SDS011;55834;50.870;4.606;2023-05-20T05:03:17;10.30;;;3.50;;
68821;SDS011;55834;50.870;4.606;2023-05-20T05:05:42;6.80;;;4.03;;
68821;SDS011;55834;50.870;4.606;2023-05-20T05:08:08;5.68;;;3.42;;
68821;SDS011;55834;50.870;4.606;2023-05-20T05:10:35;5.45;;;3.00;;
68821;SDS011;55834;50.870;4.606;2023-05-20T05:13:01;3.70;;;3.17;;
68821;SDS011;55834;50.870;4.606;2023-05-20T05:15:27;7.05;;;3.17;;
68821;SDS011;55834;50.870;4.606;2023-05-20T05:17:53;5.57;;;3.33;;
68821;SDS011;55834;50.870;4.606;2023-05-20T05:20:19;7.63;;;3.20;;
68821;SDS011;55834;50.870;4.606;2023-05-20T05:22:44;6.65;;;3.38;;
68821;SDS011;55834;50.870;4.606;2023-05-20T05:25:10;5.32;;;3.75;;
68821;SDS011;55834;50.870;4.606;2023-05-20T05:27:36;4.82;;;3.90;;
68821;SDS011;55834;50.870;4.606;2023-05-20T05:30:02;5.65;;;3.42;;
68821;SDS011;55834;50.870;4.606;2023-05-20T05:34:54;7.95;;;4.10;;
68821;SDS011;55834;50.870;4.606;2023-05-20T05:37:19;5.40;;;3.55;;
68821;SDS011;55834;50.870;4.606;2023-05-20T05:39:45;4.97;;;3.35;;
68821;SDS011;55834;50.870;4.606;2023-05-20T05:42:11;7.85;;;4.57;;
68821;SDS011;55834;50.870;4.606;2023-05-20T05:44:36;4.35;;;2.83;;
68821;SDS011;55834;50.870;4.606;2023-05-20T05:47:02;5.75;;;3.67;;
68821;SDS011;55834;50.870;4.606;2023-05-20T05:49:27;9.02;;;4.45;;
68821;SDS011;55834;50.870;4.606;2023-05-20T05:51:53;10.18;;;3.20;;
68821;SDS011;55834;50.870;4.606;2023-05-20T05:54:18;7.07;;;3.85;;
68821;SDS011;55834;50.870;4.606;2023-05-20T05:56:46;7.63;;;4.13;;
68821;SDS011;55834;50.870;4.606;2023-05-20T05:59:12;4.97;;;4.22;;
68821;SDS011;55834;50.870;4.606;2023-05-20T06:01:37;4.53;;;3.45;;
68821;SDS011;55834;50.870;4.606;2023-05-20T06:04:03;5.60;;;3.17;;
68821;SDS011;55834;50.870;4.606;2023-05-20T06:06:29;6.45;;;3.58;;
68821;SDS011;55834;50.870;4.606;2023-05-20T06:08:55;8.70;;;4.10;;
68821;SDS011;55834;50.870;4.606;2023-05-20T06:11:22;4.95;;;3.58;;
68821;SDS011;55834;50.870;4.606;2023-05-20T06:13:48;5.88;;;3.63;;
68821;SDS011;55834;50.870;4.606;2023-05-20T06:16:14;5.68;;;3.78;;
68821;SDS011;55834;50.870;4.606;2023-05-20T06:18:40;9.38;;;3.65;;
68821;SDS011;55834;50.870;4.606;2023-05-20T06:21:06;5.18;;;3.65;;
68821;SDS011;55834;50.870;4.606;2023-05-20T06:23:31;10.88;;;4.80;;
68821;SDS011;55834;50.870;4.606;2023-05-20T06:25:57;3.80;;;3.08;;
68821;SDS011;55834;50.870;4.606;2023-05-20T06:28:23;6.45;;;3.60;;
68821;SDS011;55834;50.870;4.606;2023-05-20T06:30:49;7.82;;;3.55;;
68821;SDS011;55834;50.870;4.606;2023-05-20T06:33:14;8.02;;;3.90;;
68821;SDS011;55834;50.870;4.606;2023-05-20T06:35:41;4.03;;;3.22;;
68821;SDS011;55834;50.870;4.606;2023-05-20T06:38:07;4.00;;;3.25;;
68821;SDS011;55834;50.870;4.606;2023-05-20T06:40:32;5.60;;;3.53;;
68821;SDS011;55834;50.870;4.606;2023-05-20T06:42:58;6.32;;;3.70;;
68821;SDS011;55834;50.870;4.606;2023-05-20T06:45:23;6.10;;;3.47;;
68821;SDS011;55834;50.870;4.606;2023-05-20T06:47:49;3.95;;;3.45;;
68821;SDS011;55834;50.870;4.606;2023-05-20T06:50:14;5.05;;;3.78;;
68821;SDS011;55834;50.870;4.606;2023-05-20T06:52:40;6.50;;;3.78;;
68821;SDS011;55834;50.870;4.606;2023-05-20T06:55:05;4.45;;;2.50;;
68821;SDS011;55834;50.870;4.606;2023-05-20T06:57:31;4.20;;;3.28;;
68821;SDS011;55834;50.870;4.606;2023-05-20T06:59:56;3.60;;;3.30;;
68821;SDS011;55834;50.870;4.606;2023-05-20T07:02:22;5.13;;;3.72;;
68821;SDS011;55834;50.870;4.606;2023-05-20T07:04:47;5.40;;;3.47;;
68821;SDS011;55834;50.870;4.606;2023-05-20T07:07:13;5.43;;;3.40;;
68821;SDS011;55834;50.870;4.606;2023-05-20T07:09:38;4.68;;;3.85;;
68821;SDS011;55834;50.870;4.606;2023-05-20T07:12:04;8.50;;;3.00;;
68821;SDS011;55834;50.870;4.606;2023-05-20T07:14:30;5.07;;;2.92;;
68821;SDS011;55834;50.870;4.606;2023-05-20T07:16:57;5.57;;;3.10;;
68821;SDS011;55834;50.870;4.606;2023-05-20T07:19:22;4.88;;;3.10;;
68821;SDS011;55834;50.870;4.606;2023-05-20T07:21:48;5.00;;;3.42;;
68821;SDS011;55834;50.870;4.606;2023-05-20T07:24:14;6.10;;;4.05;;
68821;SDS011;55834;50.870;4.606;2023-05-20T07:26:40;5.68;;;3.10;;
68821;SDS011;55834;50.870;4.606;2023-05-20T07:29:06;7.28;;;3.75;;
68821;SDS011;55834;50.870;4.606;2023-05-20T07:31:31;4.95;;;3.30;;
68821;SDS011;55834;50.870;4.606;2023-05-20T07:33:57;4.57;;;3.58;;
68821;SDS011;55834;50.870;4.606;2023-05-20T07:36:24;6.30;;;3.22;;
68821;SDS011;55834;50.870;4.606;2023-05-20T07:38:51;3.42;;;3.13;;
68821;SDS011;55834;50.870;4.606;2023-05-20T07:41:17;4.25;;;2.85;;
68821;SDS011;55834;50.870;4.606;2023-05-20T07:43:42;5.53;;;3.25;;
68821;SDS011;55834;50.870;4.606;2023-05-20T07:46:08;3.15;;;2.85;;
68821;SDS011;55834;50.870;4.606;2023-05-20T07:48:33;3.78;;;3.20;;
68821;SDS011;55834;50.870;4.606;2023-05-20T07:50:58;3.88;;;2.95;;
68821;SDS011;55834;50.870;4.606;2023-05-20T07:53:24;4.53;;;2.75;;
68821;SDS011;55834;50.870;4.606;2023-05-20T07:55:50;2.70;;;2.50;;
68821;SDS011;55834;50.870;4.606;2023-05-20T07:58:16;3.40;;;2.65;;
68821;SDS011;55834;50.870;4.606;2023-05-20T08:00:41;4.13;;;2.83;;
68821;SDS011;55834;50.870;4.606;2023-05-20T08:03:08;3.88;;;2.78;;
68821;SDS011;55834;50.870;4.606;2023-05-20T08:05:37;3.63;;;2.38;;
68821;SDS011;55834;50.870;4.606;2023-05-20T08:08:02;2.45;;;2.25;;
68821;SDS011;55834;50.870;4.606;2023-05-20T08:10:28;5.55;;;2.95;;
68821;SDS011;55834;50.870;4.606;2023-05-20T08:12:54;4.25;;;3.03;;
68821;SDS011;55834;50.870;4.606;2023-05-20T08:15:19;2.70;;;2.33;;
68821;SDS011;55834;50.870;4.606;2023-05-20T08:17:45;3.72;;;2.53;;
68821;SDS011;55834;50.870;4.606;2023-05-20T08:20:10;3.45;;;2.88;;
68821;SDS011;55834;50.870;4.606;2023-05-20T08:22:36;5.10;;;2.28;;
68821;SDS011;55834;50.870;4.606;2023-05-20T08:25:03;4.10;;;2.33;;
68821;SDS011;55834;50.870;4.606;2023-05-20T08:27:28;3.90;;;2.78;;
68821;SDS011;55834;50.870;4.606;2023-05-20T08:29:54;5.68;;;2.80;;
68821;SDS011;55834;50.870;4.606;2023-05-20T08:32:20;2.85;;;2.22;;
68821;SDS011;55834;50.870;4.606;2023-05-20T08:34:45;7.28;;;2.70;;
68821;SDS011;55834;50.870;4.606;2023-05-20T08:37:13;2.75;;;2.53;;
68821;SDS011;55834;50.870;4.606;2023-05-20T08:39:38;5.32;;;2.13;;
68821;SDS011;55834;50.870;4.606;2023-05-20T08:42:04;4.88;;;2.50;;
68821;SDS011;55834;50.870;4.606;2023-05-20T08:44:31;2.28;;;2.08;;
68821;SDS011;55834;50.870;4.606;2023-05-20T08:46:58;2.97;;;2.65;;
68821;SDS011;55834;50.870;4.606;2023-05-20T08:49:24;5.07;;;2.83;;
68821;SDS011;55834;50.870;4.606;2023-05-20T08:51:49;2.97;;;2.28;;
68821;SDS011;55834;50.870;4.606;2023-05-20T08:54:15;3.30;;;2.30;;
68821;SDS011;55834;50.870;4.606;2023-05-20T08:56:41;14.15;;;2.90;;
68821;SDS011;55834;50.870;4.606;2023-05-20T08:59:08;5.00;;;2.42;;
68821;SDS011;55834;50.870;4.606;2023-05-20T09:01:35;6.78;;;2.67;;
68821;SDS011;55834;50.870;4.606;2023-05-20T09:04:05;2.42;;;2.13;;
68821;SDS011;55834;50.870;4.606;2023-05-20T09:06:41;2.75;;;2.25;;
68821;SDS011;55834;50.870;4.606;2023-05-20T09:09:09;3.15;;;1.83;;
68821;SDS011;55834;50.870;4.606;2023-05-20T09:11:35;5.10;;;2.53;;
68821;SDS011;55834;50.870;4.606;2023-05-20T09:14:01;4.22;;;1.92;;
68821;SDS011;55834;50.870;4.606;2023-05-20T09:16:26;2.90;;;1.90;;
68821;SDS011;55834;50.870;4.606;2023-05-20T09:18:55;3.78;;;3.08;;
68821;SDS011;55834;50.870;4.606;2023-05-20T09:21:24;3.42;;;2.38;;
68821;SDS011;55834;50.870;4.606;2023-05-20T09:23:54;2.15;;;1.90;;
68821;SDS011;55834;50.870;4.606;2023-05-20T09:26:25;3.33;;;2.28;;
68821;SDS011;55834;50.870;4.606;2023-05-20T09:28:54;2.13;;;1.75;;
68821;SDS011;55834;50.870;4.606;2023-05-20T09:31:20;2.85;;;2.38;;
68821;SDS011;55834;50.870;4.606;2023-05-20T09:33:50;5.10;;;2.22;;
68821;SDS011;55834;50.870;4.606;2023-05-20T09:36:16;4.55;;;2.22;;
68821;SDS011;55834;50.870;4.606;2023-05-20T09:38:45;2.42;;;2.15;;
68821;SDS011;55834;50.870;4.606;2023-05-20T09:41:14;3.97;;;2.20;;
68821;SDS011;55834;50.870;4.606;2023-05-20T09:43:40;4.82;;;2.42;;
68821;SDS011;55834;50.870;4.606;2023-05-20T09:46:06;3.53;;;2.13;;
68821;SDS011;55834;50.870;4.606;2023-05-20T09:48:34;3.03;;;2.10;;
68821;SDS011;55834;50.870;4.606;2023-05-20T09:51:01;3.70;;;2.80;;
68821;SDS011;55834;50.870;4.606;2023-05-20T09:53:28;3.55;;;3.08;;
68821;SDS011;55834;50.870;4.606;2023-05-20T09:55:54;3.67;;;2.05;;
68821;SDS011;55834;50.870;4.606;2023-05-20T09:58:20;2.47;;;2.15;;
68821;SDS011;55834;50.870;4.606;2023-05-20T10:00:47;3.60;;;2.05;;
68821;SDS011;55834;50.870;4.606;2023-05-20T10:03:12;3.15;;;2.33;;
68821;SDS011;55834;50.870;4.606;2023-05-20T10:05:40;3.10;;;2.28;;
68821;SDS011;55834;50.870;4.606;2023-05-20T10:22:00;5.35;;;2.42;;
68821;SDS011;55834;50.870;4.606;2023-05-20T10:26:56;1.92;;;1.70;;
68821;SDS011;55834;50.870;4.606;2023-05-20T10:29:23;5.88;;;2.65;;
68821;SDS011;55834;50.870;4.606;2023-05-20T10:31:49;10.02;;;2.40;;
68821;SDS011;55834;50.870;4.606;2023-05-20T10:34:17;6.50;;;2.15;;
68821;SDS011;55834;50.870;4.606;2023-05-20T10:37:04;5.50;;;2.10;;
68821;SDS011;55834;50.870;4.606;2023-05-20T10:39:30;6.05;;;2.65;;
68821;SDS011;55834;50.870;4.606;2023-05-20T10:42:08;2.67;;;2.05;;
68821;SDS011;55834;50.870;4.606;2023-05-20T10:44:41;3.33;;;2.25;;
68821;SDS011;55834;50.870;4.606;2023-05-20T10:47:10;5.65;;;2.13;;
68821;SDS011;55834;50.870;4.606;2023-05-20T10:49:39;2.58;;;1.98;;
68821;SDS011;55834;50.870;4.606;2023-05-20T10:52:08;2.58;;;2.00;;
68821;SDS011;55834;50.870;4.606;2023-05-20T10:54:42;4.88;;;2.80;;
68821;SDS011;55834;50.870;4.606;2023-05-20T10:57:09;4.00;;;2.17;;
68821;SDS011;55834;50.870;4.606;2023-05-20T10:59:35;2.58;;;1.98;;
68821;SDS011;55834;50.870;4.606;2023-05-20T11:02:01;3.78;;;2.38;;
68821;SDS011;55834;50.870;4.606;2023-05-20T11:04:27;5.40;;;2.20;;
68821;SDS011;55834;50.870;4.606;2023-05-20T11:06:53;3.95;;;2.33;;
68821;SDS011;55834;50.870;4.606;2023-05-20T11:09:20;2.25;;;2.05;;
68821;SDS011;55834;50.870;4.606;2023-05-20T11:11:48;3.20;;;1.90;;
68821;SDS011;55834;50.870;4.606;2023-05-20T11:14:15;1.73;;;1.63;;
68821;SDS011;55834;50.870;4.606;2023-05-20T11:19:08;2.20;;;2.00;;
68821;SDS011;55834;50.870;4.606;2023-05-20T11:21:43;3.95;;;2.45;;
68821;SDS011;55834;50.870;4.606;2023-05-20T11:24:09;2.90;;;2.28;;
68821;SDS011;55834;50.870;4.606;2023-05-20T11:26:35;4.93;;;2.30;;
68821;SDS011;55834;50.870;4.606;2023-05-20T11:29:01;2.92;;;2.05;;
68821;SDS011;55834;50.870;4.606;2023-05-20T11:31:26;5.70;;;2.42;;
68821;SDS011;55834;50.870;4.606;2023-05-20T11:33:52;4.85;;;2.13;;
68821;SDS011;55834;50.870;4.606;2023-05-20T11:36:17;4.50;;;2.72;;
68821;SDS011;55834;50.870;4.606;2023-05-20T11:38:44;4.30;;;2.67;;
68821;SDS011;55834;50.870;4.606;2023-05-20T11:41:11;2.70;;;2.42;;
68821;SDS011;55834;50.870;4.606;2023-05-20T11:43:37;3.17;;;2.40;;
68821;SDS011;55834;50.870;4.606;2023-05-20T11:46:03;4.30;;;2.60;;
68821;SDS011;55834;50.870;4.606;2023-05-20T11:48:29;10.40;;;2.65;;
68821;SDS011;55834;50.870;4.606;2023-05-20T11:50:55;3.10;;;2.22;;
68821;SDS011;55834;50.870;4.606;2023-05-20T11:53:21;2.80;;;2.50;;
68821;SDS011;55834;50.870;4.606;2023-05-20T11:55:48;3.05;;;2.58;;
68821;SDS011;55834;50.870;4.606;2023-05-20T11:58:21;4.30;;;2.60;;
68821;SDS011;55834;50.870;4.606;2023-05-20T12:00:51;2.40;;;2.13;;
68821;SDS011;55834;50.870;4.606;2023-05-20T12:03:17;2.15;;;1.95;;
68821;SDS011;55834;50.870;4.606;2023-05-20T12:05:43;4.15;;;2.08;;
68821;SDS011;55834;50.870;4.606;2023-05-20T12:08:09;3.33;;;2.10;;
68821;SDS011;55834;50.870;4.606;2023-05-20T12:10:35;2.20;;;1.88;;
68821;SDS011;55834;50.870;4.606;2023-05-20T12:13:03;1.75;;;1.48;;
68821;SDS011;55834;50.870;4.606;2023-05-20T12:15:32;8.90;;;3.30;;
68821;SDS011;55834;50.870;4.606;2023-05-20T12:20:25;2.72;;;2.50;;
68821;SDS011;55834;50.870;4.606;2023-05-20T12:22:51;2.75;;;2.10;;
68821;SDS011;55834;50.870;4.606;2023-05-20T12:25:18;2.03;;;1.73;;
68821;SDS011;55834;50.870;4.606;2023-05-20T12:27:54;3.78;;;2.28;;
68821;SDS011;55834;50.870;4.606;2023-05-20T12:30:23;6.75;;;2.67;;
68821;SDS011;55834;50.870;4.606;2023-05-20T12:32:49;3.17;;;2.20;;
68821;SDS011;55834;50.870;4.606;2023-05-20T12:35:16;3.80;;;2.45;;
68821;SDS011;55834;50.870;4.606;2023-05-20T12:37:42;3.17;;;2.33;;
68821;SDS011;55834;50.870;4.606;2023-05-20T12:40:09;4.03;;;2.13;;
68821;SDS011;55834;50.870;4.606;2023-05-20T12:42:38;2.35;;;2.13;;
68821;SDS011;55834;50.870;4.606;2023-05-20T12:45:05;5.20;;;2.13;;
68821;SDS011;55834;50.870;4.606;2023-05-20T12:47:31;3.63;;;2.22;;
68821;SDS011;55834;50.870;4.606;2023-05-20T12:49:58;3.63;;;1.80;;
68821;SDS011;55834;50.870;4.606;2023-05-20T12:52:24;3.78;;;2.28;;
68821;SDS011;55834;50.870;4.606;2023-05-20T12:54:50;2.25;;;1.92;;
68821;SDS011;55834;50.870;4.606;2023-05-20T12:57:15;4.05;;;1.75;;
68821;SDS011;55834;50.870;4.606;2023-05-20T12:59:43;2.33;;;2.17;;
68821;SDS011;55834;50.870;4.606;2023-05-20T13:02:09;2.63;;;1.92;;
68821;SDS011;55834;50.870;4.606;2023-05-20T13:04:34;3.75;;;1.70;;
68821;SDS011;55834;50.870;4.606;2023-05-20T13:07:00;2.13;;;1.83;;
68821;SDS011;55834;50.870;4.606;2023-05-20T13:09:26;2.45;;;1.88;;
68821;SDS011;55834;50.870;4.606;2023-05-20T13:11:51;2.75;;;1.80;;
68821;SDS011;55834;50.870;4.606;2023-05-20T13:14:16;5.55;;;2.08;;
68821;SDS011;55834;50.870;4.606;2023-05-20T13:16:42;1.83;;;1.67;;
68821;SDS011;55834;50.870;4.606;2023-05-20T13:19:07;3.95;;;2.15;;
68821;SDS011;55834;50.870;4.606;2023-05-20T13:21:33;4.00;;;2.00;;
68821;SDS011;55834;50.870;4.606;2023-05-20T13:23:58;3.70;;;2.50;;
68821;SDS011;55834;50.870;4.606;2023-05-20T13:26:25;3.08;;;2.17;;
68821;SDS011;55834;50.870;4.606;2023-05-20T13:28:50;4.38;;;2.33;;
68821;SDS011;55834;50.870;4.606;2023-05-20T13:31:16;2.17;;;2.08;;
68821;SDS011;55834;50.870;4.606;2023-05-20T13:33:41;4.68;;;2.05;;
68821;SDS011;55834;50.870;4.606;2023-05-20T13:36:07;3.08;;;2.33;;
68821;SDS011;55834;50.870;4.606;2023-05-20T13:38:33;2.20;;;1.98;;
68821;SDS011;55834;50.870;4.606;2023-05-20T13:40:59;3.15;;;2.30;;
68821;SDS011;55834;50.870;4.606;2023-05-20T13:43:24;4.35;;;2.33;;
68821;SDS011;55834;50.870;4.606;2023-05-20T13:45:53;4.05;;;3.03;;
68821;SDS011;55834;50.870;4.606;2023-05-20T13:48:19;2.25;;;1.90;;
68821;SDS011;55834;50.870;4.606;2023-05-20T13:50:45;2.20;;;2.03;;
68821;SDS011;55834;50.870;4.606;2023-05-20T13:53:10;3.42;;;2.20;;
68821;SDS011;55834;50.870;4.606;2023-05-20T13:55:38;1.80;;;1.58;;
68821;SDS011;55834;50.870;4.606;2023-05-20T13:58:04;4.28;;;2.45;;
68821;SDS011;55834;50.870;4.606;2023-05-20T14:00:33;4.30;;;1.92;;
68821;SDS011;55834;50.870;4.606;2023-05-20T14:03:01;2.33;;;2.10;;
68821;SDS011;55834;50.870;4.606;2023-05-20T14:05:29;2.03;;;1.92;;
68821;SDS011;55834;50.870;4.606;2023-05-20T14:07:55;2.85;;;2.20;;
68821;SDS011;55834;50.870;4.606;2023-05-20T14:10:21;4.20;;;2.08;;
68821;SDS011;55834;50.870;4.606;2023-05-20T14:12:46;5.30;;;2.67;;
68821;SDS011;55834;50.870;4.606;2023-05-20T14:15:12;5.18;;;2.78;;
68821;SDS011;55834;50.870;4.606;2023-05-20T14:17:37;2.47;;;1.90;;
68821;SDS011;55834;50.870;4.606;2023-05-20T14:20:03;2.28;;;1.67;;
68821;SDS011;55834;50.870;4.606;2023-05-20T14:22:30;2.28;;;2.08;;
68821;SDS011;55834;50.870;4.606;2023-05-20T14:24:55;3.10;;;1.85;;
68821;SDS011;55834;50.870;4.606;2023-05-20T14:27:20;2.13;;;1.90;;
68821;SDS011;55834;50.870;4.606;2023-05-20T14:29:46;3.42;;;2.60;;
68821;SDS011;55834;50.870;4.606;2023-05-20T14:32:11;2.70;;;1.95;;
68821;SDS011;55834;50.870;4.606;2023-05-20T14:34:38;3.95;;;2.17;;
68821;SDS011;55834;50.870;4.606;2023-05-20T14:37:03;3.13;;;2.03;;
68821;SDS011;55834;50.870;4.606;2023-05-20T14:39:33;1.77;;;1.67;;
68821;SDS011;55834;50.870;4.606;2023-05-20T14:42:02;3.50;;;2.25;;
68821;SDS011;55834;50.870;4.606;2023-05-20T14:44:28;3.63;;;2.45;;
68821;SDS011;55834;50.870;4.606;2023-05-20T14:46:54;2.53;;;1.88;;
68821;SDS011;55834;50.870;4.606;2023-05-20T14:49:19;6.68;;;2.38;;
68821;SDS011;55834;50.870;4.606;2023-05-20T14:51:45;2.88;;;2.17;;
68821;SDS011;55834;50.870;4.606;2023-05-20T14:54:11;2.80;;;2.55;;
68821;SDS011;55834;50.870;4.606;2023-05-20T14:56:38;3.38;;;2.05;;
68821;SDS011;55834;50.870;4.606;2023-05-20T14:59:04;2.22;;;2.03;;
68821;SDS011;55834;50.870;4.606;2023-05-20T15:01:30;2.63;;;1.80;;
68821;SDS011;55834;50.870;4.606;2023-05-20T15:03:56;2.25;;;1.75;;
68821;SDS011;55834;50.870;4.606;2023-05-20T15:06:21;2.25;;;2.05;;
68821;SDS011;55834;50.870;4.606;2023-05-20T15:08:47;3.60;;;1.90;;